Terminal Aerodrome Forecast
Issued by NWS

Home | Current Version | Previous Version | Graphics & Text | Print | Product List | Glossary Off
Versions: 1 2 3 4 5 6 7 8 9 10 11 12 13 14

000
FTUS43 KDDC 171741
TAFGCK
TAF
KGCK 171741Z 1718/1818 18015KT P6SM FEW250
     FM180800 17011KT P6SM FEW200 WS020/19040KT
     FM181100 18009KT P6SM FEW200
     FM181400 19012G21KT P6SM FEW200=

USA.gov is the U.S. government's official web portal to all federal, state and local government web resources and services.